Aviation Digital Data Service (ADDS)

Output produced by METARs form (0306 UTC 19 April 2015)
found at http://aviationweather.gov/adds/metars/
 
KRUT 182320Z 1900/1924 34012KT P6SM SCT090 
     FM190300 32005KT P6SM SKC 
     FM191200 35006KT P6SM SKC AMD LTD TO CLD VIS AND WIND